Time;durP1;ratioP1;P1;durP2;ratioP2;P2;SDS_P1;SDS_P2;PMS_P1;PMS_P2;Temp;Humidity;BMP_temperature;BMP_pressure;BME280_temperature;BME280_humidity;BME280_pressure;Samples;Min_cycle;Max_cycle;Signal;HPM_P1;HPM_P2
2024/03/14 00:01:07;;;;;;;488.37;463.83;;;12.60;90.20;;;;;;5032323;28;20215;-67
2024/03/14 00:03:33;;;;;;;266.33;249.63;;;12.60;90.10;;;;;;5032348;28;20405;-67
2024/03/14 00:06:01;;;;;;;367.10;346.50;;;12.60;87.80;;;;;;5032142;28;20563;-67
2024/03/14 00:08:26;;;;;;;304.40;287.00;;;12.30;97.00;;;;;;5032150;28;20415;-67
2024/03/14 00:10:54;;;;;;;235.60;220.40;;;12.60;86.80;;;;;;5032234;28;20408;-67
2024/03/14 00:13:20;;;;;;;289.17;272.00;;;12.00;89.80;;;;;;5032071;28;20202;-67
2024/03/14 00:15:46;;;;;;;340.43;321.97;;;12.60;61.60;;;;;;5032101;28;20422;-67
2024/03/14 00:18:11;;;;;;;245.03;228.73;;;12.60;36.60;;;;;;5031781;28;20777;-67
2024/03/14 00:20:39;;;;;;;236.40;221.20;;;12.40;99.90;;;;;;5032112;28;20189;-67
2024/03/14 00:23:05;;;;;;;301.10;283.80;;;12.50;99.90;;;;;;5032055;28;20609;-67
2024/03/14 00:25:30;;;;;;;311.03;293.53;;;12.30;99.90;;;;;;5031850;28;20415;-67
2024/03/14 00:27:56;;;;;;;263.93;247.57;;;12.40;1.00;;;;;;5032063;28;20170;-67
2024/03/14 00:30:21;;;;;;;247.30;231.93;;;12.30;99.90;;;;;;5032111;28;20189;-67
2024/03/14 00:32:47;;;;;;;342.60;323.37;;;12.30;99.90;;;;;;5031868;28;20174;-67
2024/03/14 00:35:13;;;;;;;443.53;420.13;;;12.30;99.90;;;;;;5031675;28;20162;-67
2024/03/14 00:37:43;;;;;;;291.43;274.13;;;12.30;1.00;;;;;;5031886;28;20208;-67
2024/03/14 00:40:11;;;;;;;218.70;204.03;;;12.30;1.00;;;;;;5031982;28;20198;-67
2024/03/14 00:42:42;;;;;;;204.70;189.90;;;12.30;93.70;;;;;;5031756;28;20463;-67
2024/03/14 00:45:09;;;;;;;299.10;282.00;;;12.20;99.90;;;;;;5031595;28;20930;-67
2024/03/14 00:47:35;;;;;;;250.97;235.27;;;12.30;99.90;;;;;;5031733;28;20413;-67
2024/03/14 00:50:01;;;;;;;177.77;163.47;;;12.30;1.00;;;;;;5031596;28;20454;-67
2024/03/14 00:52:27;;;;;;;205.07;190.73;;;12.30;99.90;;;;;;5031613;28;20786;-67
2024/03/14 00:54:53;;;;;;;168.93;155.00;;;12.30;1.00;;;;;;5031289;28;20559;-67
2024/03/14 00:57:18;;;;;;;232.13;217.27;;;12.20;1.00;;;;;;5031606;28;20570;-67
2024/03/14 00:59:44;;;;;;;244.17;228.73;;;12.20;1.00;;;;;;5031385;28;20287;-67
2024/03/14 01:02:11;;;;;;;195.87;181.43;;;12.20;1.00;;;;;;5031578;28;20169;-67
2024/03/14 01:04:37;;;;;;;181.80;168.10;;;12.20;22.70;;;;;;5031311;28;20168;-67
2024/03/14 01:07:02;;;;;;;204.80;189.40;;;12.10;22.80;;;;;;5031453;28;20412;-67
2024/03/14 01:09:30;;;;;;;194.13;178.80;;;12.10;3.20;;;;;;5031275;28;20999;-67
2024/03/14 01:11:56;;;;;;;203.50;188.73;;;12.10;12.70;;;;;;5031547;28;20172;-67
2024/03/14 01:14:21;;;;;;;238.93;223.03;;;12.00;13.30;;;;;;5031034;28;20460;-67
2024/03/14 01:16:49;;;;;;;215.30;200.73;;;12.10;1.00;;;;;;5031380;28;20182;-67
2024/03/14 01:19:16;;;;;;;210.47;196.00;;;12.10;1.00;;;;;;5031251;28;20676;-67
2024/03/14 01:21:42;;;;;;;170.53;157.13;;;12.10;1.00;;;;;;5031298;28;20489;-68
2024/03/14 01:24:07;;;;;;;175.17;161.67;;;12.00;18.80;;;;;;5030927;28;20453;-67
2024/03/14 01:26:33;;;;;;;209.57;195.00;;;12.00;1.00;;;;;;5031288;28;20401;-67
2024/03/14 01:28:59;;;;;;;173.70;159.70;;;12.00;1.00;;;;;;5031175;28;20729;-67
2024/03/14 01:31:25;;;;;;;252.37;236.67;;;11.90;41.80;;;;;;5033911;28;20247;-67
2024/03/14 01:33:51;;;;;;;189.50;174.87;;;11.90;39.00;;;;;;5035096;28;20931;-67
2024/03/14 01:36:16;;;;;;;249.90;234.00;;;12.00;1.00;;;;;;5034890;28;20164;-67
2024/03/14 01:38:42;;;;;;;258.97;242.97;;;12.00;99.90;;;;;;5035029;28;20189;-67
2024/03/14 01:41:20;;;;;;;377.83;357.20;;;12.00;99.90;;;;;;5035180;28;20256;-67
2024/03/14 01:43:56;;;;;;;522.07;494.17;;;12.10;1.00;;;;;;5035053;28;20169;-67
2024/03/14 01:46:24;;;;;;;319.90;301.10;;;12.10;99.90;;;;;;5035015;28;20435;-67
2024/03/14 01:48:49;;;;;;;200.47;186.27;;;12.20;99.90;;;;;;5034837;28;20434;-67
2024/03/14 01:51:15;;;;;;;180.93;167.30;;;12.10;99.90;;;;;;5034918;28;20403;-67
2024/03/14 01:53:40;;;;;;;229.07;213.90;;;11.90;99.90;;;;;;5034754;28;20238;-67
2024/03/14 01:56:07;;;;;;;262.27;245.70;;;11.90;1.00;;;;;;5034565;28;20179;-67
2024/03/14 01:58:33;;;;;;;194.47;179.67;;;12.00;1.00;;;;;;5034650;28;20181;-67
2024/03/14 02:01:00;;;;;;;167.33;153.40;;;11.90;1.00;;;;;;5034589;28;20518;-67
2024/03/14 02:03:26;;;;;;;175.17;161.70;;;11.70;1.00;;;;;;5034720;28;20445;-67
2024/03/14 02:06:04;;;;;;;183.13;169.53;;;11.70;1.00;;;;;;5034368;28;20405;-68
2024/03/14 02:08:30;;;;;;;215.33;200.73;;;11.70;1.00;;;;;;5034549;28;20433;-68
2024/03/14 02:10:55;;;;;;;309.60;291.80;;;11.70;1.00;;;;;;5034514;28;20411;-68
2024/03/14 02:13:21;;;;;;;231.13;216.03;;;11.70;18.50;;;;;;5034349;28;20504;-67
2024/03/14 02:15:48;;;;;;;212.07;197.30;;;11.70;29.20;;;;;;5034227;28;20173;-67
2024/03/14 02:18:14;;;;;;;217.87;203.13;;;11.50;5.70;;;;;;5034320;28;20279;-67
2024/03/14 02:20:39;;;;;;;248.83;233.27;;;11.40;1.00;;;;;;5034485;28;20427;-68
2024/03/14 02:23:05;;;;;;;271.07;254.83;;;11.40;8.90;;;;;;5034501;28;20988;-67
2024/03/14 02:25:31;;;;;;;294.93;277.90;;;11.30;1.00;;;;;;5034323;28;20250;-67
2024/03/14 02:27:57;;;;;;;361.67;342.33;;;11.20;1.00;;;;;;5034336;28;20172;-67
2024/03/14 02:30:22;;;;;;;380.20;360.50;;;11.20;1.00;;;;;;5034129;28;20579;-67
2024/03/14 02:32:48;;;;;;;410.00;388.33;;;11.20;99.90;;;;;;5034095;28;20168;-67
2024/03/14 02:35:14;;;;;;;425.77;404.13;;;11.10;99.90;;;;;;5033846;28;20639;-67
2024/03/14 02:37:39;;;;;;;459.87;436.53;;;11.00;99.90;;;;;;5033975;28;20176;-67
2024/03/14 02:40:06;;;;;;;450.33;427.50;;;11.00;1.00;;;;;;5033960;28;20199;-67
2024/03/14 02:42:32;;;;;;;473.80;449.93;;;11.00;1.00;;;;;;5033478;28;20215;-68
2024/03/14 02:44:58;;;;;;;484.20;460.17;;;11.00;43.20;;;;;;5016290;28;20454;-67
2024/03/14 02:47:23;;;;;;;466.50;443.03;;;10.90;45.70;;;;;;5034070;28;20936;-67
2024/03/14 02:49:49;;;;;;;481.83;457.03;;;10.90;82.20;;;;;;5033734;28;20626;-67
2024/03/14 02:52:15;;;;;;;488.83;464.63;;;10.90;66.80;;;;;;5033769;28;20184;-67
2024/03/14 02:54:41;;;;;;;460.37;437.17;;;10.90;90.10;;;;;;5033453;28;20981;-68
2024/03/14 02:57:07;;;;;;;453.50;430.20;;;10.90;78.60;;;;;;5033604;28;20425;-68
2024/03/14 02:59:33;;;;;;;485.60;460.83;;;10.90;75.70;;;;;;5033484;28;20533;-68
2024/03/14 03:02:00;;;;;;;493.00;468.73;;;10.90;90.20;;;;;;5033748;28;20200;-67
2024/03/14 03:04:30;;;;;;;447.33;424.43;;;10.90;76.00;;;;;;5033417;28;20242;-67
2024/03/14 03:06:58;;;;;;;472.17;448.50;;;10.90;99.90;;;;;;5033498;28;20403;-67
2024/03/14 03:09:25;;;;;;;473.53;450.13;;;10.90;99.90;;;;;;5033322;28;20953;-67
2024/03/14 03:11:53;;;;;;;473.13;449.43;;;10.80;97.40;;;;;;5033325;28;20418;-67
2024/03/14 03:14:18;;;;;;;471.30;447.73;;;10.90;99.90;;;;;;5033209;28;20545;-68
2024/03/14 03:16:44;;;;;;;486.07;461.80;;;10.80;99.90;;;;;;5033311;28;20848;-67
2024/03/14 03:19:10;;;;;;;471.67;447.80;;;10.80;99.90;;;;;;5033148;28;20188;-67
2024/03/14 03:21:38;;;;;;;484.00;459.90;;;10.80;99.90;;;;;;5033230;28;20774;-67
2024/03/14 03:24:07;;;;;;;439.90;417.50;;;10.80;99.90;;;;;;5032949;28;20262;-67
2024/03/14 03:26:36;;;;;;;468.67;445.27;;;10.70;99.90;;;;;;5033116;28;20772;-67
2024/03/14 03:29:02;;;;;;;523.20;496.27;;;10.80;99.90;;;;;;5033194;28;20438;-67
2024/03/14 03:31:28;;;;;;;458.47;435.27;;;10.70;99.90;;;;;;5033057;28;20937;-67
2024/03/14 03:33:54;;;;;;;480.40;456.00;;;10.70;99.90;;;;;;5032958;28;20468;-67
2024/03/14 03:36:23;;;;;;;451.27;427.50;;;10.70;99.90;;;;;;5032897;28;20176;-67
2024/03/14 03:38:49;;;;;;;487.70;463.17;;;10.60;99.90;;;;;;5032845;28;20210;-67
2024/03/14 03:41:15;;;;;;;528.77;502.63;;;10.60;99.90;;;;;;5032809;28;20406;-67
2024/03/14 03:43:41;;;;;;;519.83;494.07;;;10.60;99.90;;;;;;5032802;28;20423;-67
2024/03/14 03:46:09;;;;;;;476.20;452.30;;;10.50;99.90;;;;;;5032482;28;20414;-67
2024/03/14 03:48:37;;;;;;;458.57;435.67;;;10.50;99.90;;;;;;5032666;28;20708;-67
2024/03/14 03:51:04;;;;;;;498.70;473.77;;;10.50;99.90;;;;;;5032564;28;20932;-67
2024/03/14 03:53:32;;;;;;;480.17;456.10;;;10.60;99.90;;;;;;5031703;28;20528;-67
2024/03/14 03:56:02;;;;;;;478.73;454.93;;;10.60;99.90;;;;;;5032261;28;20414;-67
2024/03/14 03:58:30;;;;;;;467.63;444.23;;;10.60;99.90;;;;;;5032678;28;20475;-67
2024/03/14 04:01:06;;;;;;;473.10;449.23;;;10.60;99.90;;;;;;5032490;28;20457;-69
2024/03/14 04:03:34;;;;;;;451.87;429.20;;;10.70;99.90;;;;;;5032417;28;20784;-67
2024/03/14 04:06:00;;;;;;;440.67;418.50;;;10.60;99.90;;;;;;5032162;28;20789;-67
2024/03/14 04:08:30;;;;;;;460.70;437.67;;;10.70;99.90;;;;;;5032277;28;20433;-67
2024/03/14 04:10:56;;;;;;;446.27;424.07;;;10.60;99.90;;;;;;5032284;28;20180;-67
2024/03/14 04:13:22;;;;;;;434.27;412.40;;;10.60;99.90;;;;;;5032093;28;20496;-67
2024/03/14 04:15:48;;;;;;;395.90;375.33;;;10.50;99.90;;;;;;5031983;28;20430;-67
2024/03/14 04:18:13;;;;;;;385.50;365.37;;;10.40;99.90;;;;;;5032154;28;20179;-67
2024/03/14 04:20:39;;;;;;;401.83;381.33;;;10.40;99.90;;;;;;5032089;28;20203;-67
2024/03/14 04:23:05;;;;;;;429.03;407.23;;;10.30;99.90;;;;;;5032312;28;20262;-67
2024/03/14 04:25:33;;;;;;;398.03;377.33;;;10.30;99.90;;;;;;5031944;28;20202;-68
2024/03/14 04:27:59;;;;;;;414.00;393.03;;;10.20;99.90;;;;;;5032111;28;20409;-68
2024/03/14 04:30:25;;;;;;;431.47;409.67;;;10.20;99.90;;;;;;5032059;28;21010;-68
2024/03/14 04:32:51;;;;;;;405.70;384.87;;;10.20;99.90;;;;;;5032042;28;20179;-68
2024/03/14 04:35:20;;;;;;;431.30;409.13;;;10.00;99.90;;;;;;5031549;28;20217;-68
2024/03/14 04:37:47;;;;;;;437.47;415.30;;;9.80;99.90;;;;;;5031939;28;20779;-70
2024/03/14 04:40:13;;;;;;;419.63;398.47;;;9.70;99.90;;;;;;5031909;28;20444;-68
2024/03/14 04:42:43;;;;;;;423.63;402.10;;;9.90;99.90;;;;;;5031824;28;20776;-68
2024/03/14 04:45:10;;;;;;;405.70;384.40;;;10.00;99.90;;;;;;5031518;28;20439;-67
2024/03/14 04:47:39;;;;;;;371.90;352.37;;;9.70;99.90;;;;;;5031652;28;20822;-67
2024/03/14 04:50:08;;;;;;;409.60;388.47;;;9.80;99.90;;;;;;5031634;28;20450;-67
2024/03/14 04:52:35;;;;;;;416.67;395.47;;;9.70;99.90;;;;;;5031626;28;20418;-67
2024/03/14 04:55:00;;;;;;;415.37;394.07;;;9.60;99.90;;;;;;5031399;28;20489;-67
2024/03/14 04:57:26;;;;;;;506.97;481.40;;;9.60;99.90;;;;;;5031572;28;20460;-67
2024/03/14 04:59:52;;;;;;;406.87;386.00;;;9.50;99.90;;;;;;5031447;28;20216;-67
2024/03/14 05:02:18;;;;;;;402.77;382.17;;;9.60;99.90;;;;;;5031395;28;20651;-67
2024/03/14 05:04:43;;;;;;;592.53;561.00;;;9.60;99.90;;;;;;5031127;28;20409;-68
2024/03/14 05:07:09;;;;;;;407.60;386.53;;;9.60;99.90;;;;;;5031614;28;20178;-68
2024/03/14 05:09:35;;;;;;;370.03;350.80;;;9.50;99.90;;;;;;5031396;28;20225;-68
2024/03/14 05:12:00;;;;;;;375.30;355.87;;;9.50;99.90;;;;;;5031462;28;20409;-67
2024/03/14 05:14:26;;;;;;;364.77;345.47;;;9.60;99.90;;;;;;5031122;28;20202;-67
2024/03/14 05:16:51;;;;;;;373.07;353.57;;;9.50;99.90;;;;;;5031399;28;20163;-67
2024/03/14 05:19:20;;;;;;;407.13;386.63;;;9.40;99.90;;;;;;5031345;28;20544;-67
2024/03/14 05:21:46;;;;;;;339.33;321.07;;;9.50;99.90;;;;;;5031536;28;20211;-67
2024/03/14 05:24:12;;;;;;;380.60;361.03;;;9.40;99.90;;;;;;5031068;28;20965;-67
2024/03/14 05:26:37;;;;;;;362.43;343.67;;;9.20;99.90;;;;;;5031354;28;20412;-67
2024/03/14 05:29:03;;;;;;;353.80;335.10;;;9.40;99.90;;;;;;5031264;28;20245;-67
2024/03/14 05:31:30;;;;;;;364.90;345.67;;;9.20;99.90;;;;;;5031185;28;20202;-66
2024/03/14 05:33:55;;;;;;;372.97;353.60;;;9.20;99.90;;;;;;5031124;28;20462;-66
2024/03/14 05:36:21;;;;;;;433.77;411.87;;;9.10;99.90;;;;;;5031233;28;20753;-66
2024/03/14 05:38:47;;;;;;;453.17;430.43;;;9.10;99.90;;;;;;5031187;28;20202;-66
2024/03/14 05:41:12;;;;;;;487.63;462.53;;;8.90;99.90;;;;;;5031208;28;20249;-66
2024/03/14 05:43:38;;;;;;;571.10;541.37;;;9.00;99.90;;;;;;5031167;28;20651;-66
2024/03/14 05:46:03;;;;;;;496.47;469.03;;;8.80;99.90;;;;;;5030870;28;20210;-66
2024/03/14 05:48:29;;;;;;;438.23;415.60;;;8.70;99.90;;;;;;5031330;28;20173;-66
2024/03/14 05:50:56;;;;;;;526.00;496.47;;;8.80;99.90;;;;;;5031303;28;20658;-69
2024/03/14 05:53:28;;;;;;;404.17;383.10;;;8.80;99.90;;;;;;5030919;28;20204;-69
2024/03/14 05:55:54;;;;;;;414.80;393.57;;;8.80;99.90;;;;;;5030842;28;20782;-66
2024/03/14 05:58:21;;;;;;;434.90;411.67;;;8.80;99.90;;;;;;5031025;28;20408;-68
2024/03/14 06:00:47;;;;;;;411.07;389.00;;;8.80;99.90;;;;;;5030857;28;20777;-68
2024/03/14 06:03:13;;;;;;;414.77;393.27;;;8.70;99.90;;;;;;5031211;28;20474;-68
2024/03/14 06:05:39;;;;;;;313.57;295.70;;;8.70;99.90;;;;;;5030839;28;20216;-68
2024/03/14 06:08:05;;;;;;;344.73;326.13;;;8.70;99.90;;;;;;5030973;28;20462;-68
2024/03/14 06:10:30;;;;;;;336.87;318.67;;;8.80;99.90;;;;;;5030927;28;21010;-67
2024/03/14 06:12:56;;;;;;;471.90;447.67;;;8.70;99.90;;;;;;5030855;28;20313;-68
2024/03/14 06:15:22;;;;;;;376.50;355.93;;;8.80;99.90;;;;;;5030838;28;20538;-68
2024/03/14 06:17:50;;;;;;;813.27;765.07;;;8.80;99.90;;;;;;5033750;28;20534;-68
2024/03/14 06:20:18;;;;;;;435.67;412.03;;;8.80;99.90;;;;;;5034386;28;20241;-68
2024/03/14 06:22:44;;;;;;;322.20;304.23;;;8.80;99.90;;;;;;5034342;28;20480;-68
2024/03/14 06:25:10;;;;;;;558.90;529.97;;;8.80;99.90;;;;;;5034128;28;20428;-68
2024/03/14 06:27:37;;;;;;;431.33;409.13;;;8.80;99.90;;;;;;5034303;28;20417;-68
2024/03/14 06:30:09;;;;;;;323.07;305.40;;;8.80;99.90;;;;;;5034447;28;20470;-68
2024/03/14 06:32:38;;;;;;;480.93;455.30;;;8.90;99.90;;;;;;5034169;28;20410;-68
2024/03/14 06:35:08;;;;;;;325.17;307.87;;;9.10;99.90;;;;;;5033752;28;20963;-68
2024/03/14 06:37:34;;;;;;;419.90;397.30;;;9.00;99.90;;;;;;5034193;28;20493;-68
2024/03/14 06:40:00;;;;;;;442.27;419.03;;;9.10;99.90;;;;;;5033974;28;20420;-68
2024/03/14 06:42:26;;;;;;;380.17;360.70;;;9.20;99.90;;;;;;5016372;28;20447;-68
2024/03/14 06:44:51;;;;;;;340.53;322.67;;;9.40;99.90;;;;;;5033707;28;20207;-68
2024/03/14 06:47:20;;;;;;;333.80;315.97;;;9.30;99.90;;;;;;5034025;28;20178;-68
2024/03/14 06:49:46;;;;;;;397.20;376.70;;;9.50;99.90;;;;;;5033775;28;20225;-68
2024/03/14 06:52:12;;;;;;;350.00;331.73;;;9.50;99.90;;;;;;5033874;28;20419;-68
2024/03/14 06:54:38;;;;;;;372.03;352.90;;;9.60;99.90;;;;;;5033311;28;20466;-68
2024/03/14 06:57:09;;;;;;;338.60;320.40;;;9.60;99.90;;;;;;5033706;28;20420;-67
2024/03/14 06:59:35;;;;;;;333.40;315.60;;;9.70;99.90;;;;;;5033626;28;20237;-66
2024/03/14 07:02:01;;;;;;;376.07;356.63;;;9.60;99.90;;;;;;5033663;28;20494;-68
2024/03/14 07:04:33;;;;;;;431.00;408.80;;;9.70;99.90;;;;;;5033287;28;20497;-68
2024/03/14 07:06:59;;;;;;;330.97;313.00;;;9.80;99.90;;;;;;5033506;28;20176;-66
2024/03/14 07:09:27;;;;;;;376.30;356.83;;;9.80;99.90;;;;;;5033371;28;20434;-66
2024/03/14 07:11:53;;;;;;;354.77;336.27;;;9.70;99.90;;;;;;5033417;28;20421;-66
2024/03/14 07:14:19;;;;;;;365.83;347.17;;;9.70;99.90;;;;;;5032985;28;21008;-66
2024/03/14 07:16:45;;;;;;;353.30;334.50;;;9.80;99.90;;;;;;5033352;28;20411;-66
2024/03/14 07:19:11;;;;;;;663.37;625.87;;;10.10;99.90;;;;;;5033344;28;20442;-66
2024/03/14 07:21:38;;;;;;;406.83;385.90;;;10.00;99.90;;;;;;5033278;28;20441;-66
2024/03/14 07:24:04;;;;;;;381.73;361.77;;;10.30;99.90;;;;;;5032843;28;20422;-66
2024/03/14 07:26:35;;;;;;;415.17;394.07;;;10.20;99.90;;;;;;5033203;28;20415;-66
2024/03/14 07:29:03;;;;;;;394.10;374.00;;;10.30;99.90;;;;;;5031983;28;20439;-66
2024/03/14 07:31:29;;;;;;;407.50;386.83;;;10.40;99.90;;;;;;5033078;28;20427;-66
2024/03/14 07:33:56;;;;;;;400.87;380.07;;;10.40;99.90;;;;;;5032925;28;20447;-66
2024/03/14 07:36:24;;;;;;;430.47;408.90;;;10.50;99.90;;;;;;5032979;28;20509;-66
2024/03/14 07:38:49;;;;;;;472.53;448.70;;;10.50;99.90;;;;;;5032827;28;20844;-66
2024/03/14 07:41:20;;;;;;;412.50;391.53;;;10.50;99.90;;;;;;5033059;28;20403;-66
2024/03/14 07:43:46;;;;;;;504.40;478.67;;;10.60;99.90;;;;;;5032921;28;20456;-66
2024/03/14 07:46:12;;;;;;;418.73;397.63;;;10.50;99.90;;;;;;5032508;28;20411;-66
2024/03/14 07:48:38;;;;;;;458.40;435.60;;;10.40;99.90;;;;;;5032720;28;20647;-66
2024/03/14 07:51:04;;;;;;;466.47;443.30;;;10.60;99.90;;;;;;5032654;28;20411;-66
2024/03/14 07:53:30;;;;;;;641.90;608.73;;;10.70;99.90;;;;;;5032572;28;20557;-66
2024/03/14 07:55:56;;;;;;;632.20;598.60;;;10.80;99.90;;;;;;5032527;28;20414;-66
2024/03/14 07:58:22;;;;;;;488.70;464.33;;;11.40;99.90;;;;;;5032402;28;20766;-66
2024/03/14 08:00:48;;;;;;;741.50;700.67;;;11.20;99.90;;;;;;5032314;28;20566;-66
2024/03/14 08:03:16;;;;;;;492.10;467.30;;;11.30;99.90;;;;;;5032438;28;20399;-66
2024/03/14 08:05:42;;;;;;;558.43;530.33;;;11.40;99.90;;;;;;5032098;28;20600;-66
2024/03/14 08:08:07;;;;;;;530.53;504.13;;;11.50;99.90;;;;;;5032357;28;20409;-66
2024/03/14 08:10:33;;;;;;;499.27;474.43;;;11.60;99.90;;;;;;5032234;28;20192;-66
2024/03/14 08:12:59;;;;;;;491.27;466.60;;;11.60;99.90;;;;;;5032220;28;20171;-66
2024/03/14 08:15:35;;;;;;;637.73;601.80;;;11.70;99.90;;;;;;5032081;28;20173;-69
2024/03/14 08:18:04;;;;;;;430.43;409.03;;;11.70;97.70;;;;;;5032086;28;21095;-66
2024/03/14 08:20:36;;;;;;;439.90;417.80;;;11.70;95.70;;;;;;5031558;28;20424;-66
2024/03/14 08:23:04;;;;;;;385.23;365.30;;;11.70;94.60;;;;;;5032254;28;20407;-66
2024/03/14 08:25:36;;;;;;;400.77;380.30;;;11.70;95.80;;;;;;5031914;28;20407;-66
2024/03/14 08:28:04;;;;;;;403.07;382.00;;;11.70;96.50;;;;;;5032242;28;20787;-66
2024/03/14 08:30:31;;;;;;;448.43;426.13;;;11.80;97.90;;;;;;5031968;28;20449;-66
2024/03/14 08:32:57;;;;;;;445.87;423.63;;;12.00;99.90;;;;;;5031979;28;20990;-66
2024/03/14 08:35:23;;;;;;;501.47;476.53;;;12.10;99.90;;;;;;5031813;28;20881;-66
2024/03/14 08:37:49;;;;;;;483.77;459.60;;;12.30;99.90;;;;;;5028239;28;20500;-66
2024/03/14 08:40:14;;;;;;;480.53;456.23;;;12.50;99.90;;;;;;5030916;28;20185;-66
2024/03/14 08:42:41;;;;;;;476.37;452.37;;;12.60;98.20;;;;;;5032935;28;20205;-66
2024/03/14 08:45:09;;;;;;;407.93;386.77;;;12.70;91.10;;;;;;5021672;28;20659;-66
2024/03/14 08:47:35;;;;;;;303.40;285.73;;;12.90;88.70;;;;;;5032206;28;20413;-66
2024/03/14 08:50:04;;;;;;;274.10;257.23;;;13.00;86.70;;;;;;5031734;28;20932;-66
2024/03/14 08:52:31;;;;;;;167.00;153.13;;;13.00;66.70;;;;;;5037813;28;20795;-66
2024/03/14 08:54:58;;;;;;;186.60;172.33;;;13.10;64.60;;;;;;5033322;28;20928;-67
2024/03/14 08:57:25;;;;;;;146.53;133.73;;;13.20;60.20;;;;;;5038036;28;20486;-67
2024/03/14 08:59:53;;;;;;;132.07;119.73;;;13.20;61.80;;;;;;5035342;28;20543;-67
2024/03/14 09:02:23;;;;;;;148.93;136.33;;;13.30;66.20;;;;;;5031283;28;20407;-67
2024/03/14 09:04:50;;;;;;;163.57;150.57;;;13.40;62.30;;;;;;5036583;28;20439;-66
2024/03/14 09:07:16;;;;;;;141.43;129.10;;;13.60;65.30;;;;;;5031132;28;20422;-67
2024/03/14 09:09:44;;;;;;;195.70;181.03;;;13.60;54.60;;;;;;5031220;28;20440;-67
2024/03/14 09:12:13;;;;;;;137.37;125.13;;;13.60;52.90;;;;;;5032624;28;20186;-68
2024/03/14 09:14:40;;;;;;;154.30;141.37;;;13.80;53.80;;;;;;5034985;28;20973;-68
2024/03/14 09:17:07;;;;;;;249.67;233.40;;;13.90;50.60;;;;;;5039366;28;20803;-67
2024/03/14 09:19:32;;;;;;;259.40;242.77;;;14.10;51.30;;;;;;5032840;28;21008;-68
2024/03/14 09:21:58;;;;;;;293.17;275.17;;;14.20;46.50;;;;;;5030570;28;20407;-67
2024/03/14 09:24:24;;;;;;;389.23;367.93;;;14.20;42.00;;;;;;5038283;28;20239;-68
2024/03/14 09:26:49;;;;;;;544.70;516.20;;;14.20;35.10;;;;;;5030915;28;20181;-67
2024/03/14 09:29:15;;;;;;;347.97;328.30;;;14.20;38.50;;;;;;5030492;28;20388;-68
2024/03/14 09:31:44;;;;;;;441.47;418.47;;;14.30;47.60;;;;;;5034142;28;20187;-68
2024/03/14 09:34:11;;;;;;;338.93;320.03;;;14.30;38.60;;;;;;5030155;28;20453;-68
2024/03/14 09:36:37;;;;;;;444.67;420.90;;;14.40;46.10;;;;;;5029196;28;21034;-68
2024/03/14 09:39:13;;;;;;;406.13;384.50;;;14.60;41.80;;;;;;5026250;28;20439;-69
2024/03/14 09:41:39;;;;;;;457.97;434.23;;;14.70;37.50;;;;;;5038883;28;20420;-69
2024/03/14 09:44:05;;;;;;;375.13;354.87;;;14.80;35.70;;;;;;5033812;28;20884;-69
2024/03/14 09:46:34;;;;;;;431.57;408.27;;;14.90;30.70;;;;;;5033329;28;20504;-68
2024/03/14 09:49:01;;;;;;;305.30;287.20;;;14.80;28.70;;;;;;5030679;28;20447;-68
2024/03/14 09:51:27;;;;;;;376.67;356.10;;;14.80;28.70;;;;;;5029684;28;20482;-67
2024/03/14 09:53:57;;;;;;;443.90;421.60;;;14.70;30.70;;;;;;5034315;28;20454;-69
2024/03/14 09:56:23;;;;;;;427.97;406.03;;;14.70;36.70;;;;;;5017191;28;20419;-68
2024/03/14 09:58:49;;;;;;;438.60;416.07;;;15.00;32.00;;;;;;5030544;28;20445;-68
2024/03/14 10:01:16;;;;;;;894.67;840.00;;;14.80;35.60;;;;;;5033742;28;20536;-68
2024/03/14 10:03:42;;;;;;;296.97;279.33;;;14.90;30.70;;;;;;5034283;28;20490;-68
2024/03/14 10:06:18;;;;;;;418.03;395.50;;;14.90;26.60;;;;;;5033136;28;20411;-68
2024/03/14 10:08:53;;;;;;;421.27;399.37;;;14.90;29.30;;;;;;5034600;28;20199;-68
2024/03/14 10:11:20;;;;;;;285.73;268.17;;;14.90;26.50;;;;;;5034118;28;20469;-68
2024/03/14 10:13:46;;;;;;;419.47;396.77;;;14.80;91.60;;;;;;5032767;28;20451;-68
2024/03/14 10:16:14;;;;;;;279.73;262.53;;;15.00;99.90;;;;;;5036002;28;20415;-68
2024/03/14 10:18:41;;;;;;;287.93;270.80;;;15.10;99.90;;;;;;5033316;28;20415;-68
2024/03/14 10:21:07;;;;;;;305.63;288.10;;;15.20;99.90;;;;;;5015839;28;20414;-68
2024/03/14 10:23:35;;;;;;;303.17;285.70;;;15.20;16.80;;;;;;5034220;28;20914;-68
2024/03/14 10:26:01;;;;;;;293.83;276.63;;;15.10;17.90;;;;;;5032841;28;20422;-68
2024/03/14 10:28:28;;;;;;;281.20;264.50;;;15.10;32.70;;;;;;5033320;28;20468;-68
2024/03/14 10:31:05;;;;;;;274.70;258.03;;;14.90;17.80;;;;;;5033710;28;20443;-68
2024/03/14 10:33:32;;;;;;;290.03;272.77;;;14.90;17.70;;;;;;5033862;28;20452;-68
2024/03/14 10:35:59;;;;;;;389.67;368.80;;;14.70;17.70;;;;;;5032980;28;20407;-68
2024/03/14 10:38:26;;;;;;;262.07;245.67;;;14.90;34.40;;;;;;5033779;28;20515;-70
2024/03/14 10:41:02;;;;;;;271.20;255.17;;;14.80;18.80;;;;;;5034010;28;20440;-69
2024/03/14 10:43:39;;;;;;;462.67;438.73;;;15.00;21.30;;;;;;5033295;28;20448;-69
2024/03/14 10:46:10;;;;;;;537.73;510.23;;;15.10;28.70;;;;;;5032555;28;20418;-69
2024/03/14 10:48:38;;;;;;;465.33;441.20;;;15.70;45.60;;;;;;5034354;28;21047;-68
2024/03/14 10:51:06;;;;;;;696.17;652.73;;;15.90;26.00;;;;;;5033654;28;20415;-67
2024/03/14 10:53:33;;;;;;;307.40;289.50;;;16.20;23.50;;;;;;5032514;28;20489;-67
2024/03/14 10:56:02;;;;;;;355.97;336.90;;;16.30;23.50;;;;;;5032015;28;20407;-68
2024/03/14 10:58:31;;;;;;;388.63;367.77;;;16.40;22.80;;;;;;4997834;28;20500;-68
2024/03/14 11:00:59;;;;;;;409.80;388.90;;;16.40;17.70;;;;;;5014072;28;20434;-68
2024/03/14 11:03:25;;;;;;;435.77;413.70;;;16.40;17.20;;;;;;5031948;28;20437;-68
2024/03/14 11:05:55;;;;;;;404.37;383.37;;;16.30;17.70;;;;;;5031336;28;20408;-68
2024/03/14 11:08:25;;;;;;;360.77;341.63;;;16.30;19.00;;;;;;5031391;28;20981;-68
2024/03/14 11:10:56;;;;;;;425.80;403.53;;;16.50;22.90;;;;;;5031572;28;20406;-67
2024/03/14 11:13:27;;;;;;;451.80;428.77;;;16.60;18.20;;;;;;5030892;28;20468;-67
2024/03/14 11:15:58;;;;;;;488.77;464.73;;;16.60;17.10;;;;;;5022463;28;20418;-68
2024/03/14 11:18:36;;;;;;;438.73;416.27;;;16.60;29.00;;;;;;5032817;28;20411;-67
2024/03/14 11:21:04;;;;;;;483.07;458.80;;;16.50;15.20;;;;;;5033106;28;20425;-68
2024/03/14 11:23:31;;;;;;;477.03;452.87;;;16.60;16.70;;;;;;5033150;28;20413;-68
2024/03/14 11:26:07;;;;;;;502.57;477.93;;;16.70;14.30;;;;;;5030643;28;20985;-68
2024/03/14 11:28:34;;;;;;;635.17;601.67;;;17.10;31.80;;;;;;5032617;28;20410;-67
2024/03/14 11:31:02;;;;;;;608.50;576.33;;;16.90;16.20;;;;;;5032810;28;20405;-67
2024/03/14 11:33:28;;;;;;;487.23;462.80;;;16.90;12.80;;;;;;5032874;28;20517;-68
2024/03/14 11:35:58;;;;;;;482.07;457.27;;;16.80;14.90;;;;;;5032161;28;20554;-68
2024/03/14 11:38:24;;;;;;;428.00;406.03;;;16.80;27.80;;;;;;5033030;28;20416;-68
2024/03/14 11:40:54;;;;;;;636.17;603.57;;;16.70;12.60;;;;;;5033199;28;20939;-68
2024/03/14 11:43:24;;;;;;;557.17;527.67;;;17.00;78.10;;;;;;5032183;28;20397;-68
2024/03/14 11:45:57;;;;;;;604.87;572.07;;;17.20;14.90;;;;;;5032807;28;20414;-68
2024/03/14 11:48:25;;;;;;;445.83;423.57;;;17.90;7.80;;;;;;5032381;28;20410;-68
2024/03/14 11:50:54;;;;;;;1999.90;999.90;;;17.60;6.60;;;;;;5031147;28;20502;-68
2024/03/14 11:53:22;;;;;;;1999.90;999.90;;;18.30;6.40;;;;;;5032378;28;20410;-68
2024/03/14 11:55:48;;;;;;;1999.90;999.90;;;18.70;1.00;;;;;;5032353;28;20412;-68
2024/03/14 11:58:16;;;;;;;1999.90;999.90;;;19.10;1.00;;;;;;5032059;28;20409;-68
2024/03/14 12:00:42;;;;;;;1484.00;809.00;;;19.60;1.00;;;;;;5032356;28;20450;-68
2024/03/14 12:03:09;;;;;;;362.60;342.17;;;19.90;1.00;;;;;;5032430;28;20398;-68
2024/03/14 12:05:41;;;;;;;437.23;414.30;;;19.80;1.00;;;;;;5031724;28;20783;-68
2024/03/14 12:08:10;;;;;;;378.93;358.20;;;20.00;1.00;;;;;;5032285;28;20419;-68
2024/03/14 12:10:39;;;;;;;363.37;342.80;;;20.50;1.00;;;;;;5032297;28;21010;-68